sensor_id;sensor_type;location;lat;lon;timestamp;pressure;altitude;pressure_sealevel;temperature;humidity
75172;BME280;63750;52.418;20.742;2022-11-20T00:01:20;100542.39;;;0.52;51.48
75172;BME280;63750;52.418;20.742;2022-11-20T00:03:50;100544.14;;;0.56;51.37
75172;BME280;63750;52.418;20.742;2022-11-20T00:06:20;100544.05;;;0.61;51.42
75172;BME280;63750;52.418;20.742;2022-11-20T00:08:49;100547.91;;;0.65;51.31
75172;BME280;63750;52.418;20.742;2022-11-20T00:11:19;100546.77;;;0.63;51.30
75172;BME280;63750;52.418;20.742;2022-11-20T00:13:50;100546.61;;;0.55;51.16
75172;BME280;63750;52.418;20.742;2022-11-20T00:16:21;100547.77;;;0.49;51.35
75172;BME280;63750;52.418;20.742;2022-11-20T00:18:50;100547.64;;;0.48;51.38
75172;BME280;63750;52.418;20.742;2022-11-20T00:21:20;100545.12;;;0.54;51.40
75172;BME280;63750;52.418;20.742;2022-11-20T00:23:50;100544.98;;;0.56;51.32
75172;BME280;63750;52.418;20.742;2022-11-20T00:26:20;100543.75;;;0.61;51.39
75172;BME280;63750;52.418;20.742;2022-11-20T00:28:52;100546.95;;;0.60;51.34
75172;BME280;63750;52.418;20.742;2022-11-20T00:31:21;100543.15;;;0.55;51.43
75172;BME280;63750;52.418;20.742;2022-11-20T00:33:50;100543.19;;;0.54;51.57
75172;BME280;63750;52.418;20.742;2022-11-20T00:36:20;100538.68;;;0.54;51.48
75172;BME280;63750;52.418;20.742;2022-11-20T00:38:52;100537.27;;;0.46;51.58
75172;BME280;63750;52.418;20.742;2022-11-20T00:41:21;100536.20;;;0.47;51.84
75172;BME280;63750;52.418;20.742;2022-11-20T00:43:50;100536.89;;;0.51;51.86
75172;BME280;63750;52.418;20.742;2022-11-20T00:46:22;100539.85;;;0.55;51.84
75172;BME280;63750;52.418;20.742;2022-11-20T00:48:51;100536.52;;;0.55;51.79
75172;BME280;63750;52.418;20.742;2022-11-20T00:51:21;100533.80;;;0.61;51.70
75172;BME280;63750;52.418;20.742;2022-11-20T00:53:50;100532.22;;;0.61;51.83
75172;BME280;63750;52.418;20.742;2022-11-20T00:56:19;100529.24;;;0.58;51.99
75172;BME280;63750;52.418;20.742;2022-11-20T00:58:48;100536.16;;;0.59;51.90
75172;BME280;63750;52.418;20.742;2022-11-20T01:01:18;100533.81;;;0.49;51.89
75172;BME280;63750;52.418;20.742;2022-11-20T01:03:48;100532.73;;;0.43;51.90
75172;BME280;63750;52.418;20.742;2022-11-20T01:06:19;100533.05;;;0.40;52.02
75172;BME280;63750;52.418;20.742;2022-11-20T01:08:48;100526.66;;;0.34;51.93
75172;BME280;63750;52.418;20.742;2022-11-20T01:11:18;100526.72;;;0.32;51.98
75172;BME280;63750;52.418;20.742;2022-11-20T01:13:47;100525.91;;;0.35;52.02
75172;BME280;63750;52.418;20.742;2022-11-20T01:16:18;100523.55;;;0.33;52.18
75172;BME280;63750;52.418;20.742;2022-11-20T01:18:49;100522.20;;;0.32;52.21
75172;BME280;63750;52.418;20.742;2022-11-20T01:21:21;100517.81;;;0.33;52.10
75172;BME280;63750;52.418;20.742;2022-11-20T01:23:50;100519.71;;;0.33;52.36
75172;BME280;63750;52.418;20.742;2022-11-20T01:26:21;100518.15;;;0.29;52.39
75172;BME280;63750;52.418;20.742;2022-11-20T01:28:50;100517.36;;;0.31;52.45
75172;BME280;63750;52.418;20.742;2022-11-20T01:31:20;100516.14;;;0.31;52.32
75172;BME280;63750;52.418;20.742;2022-11-20T01:33:51;100519.48;;;0.27;52.41
75172;BME280;63750;52.418;20.742;2022-11-20T01:36:22;100520.67;;;0.28;52.42
75172;BME280;63750;52.418;20.742;2022-11-20T01:38:52;100519.64;;;0.27;52.39
75172;BME280;63750;52.418;20.742;2022-11-20T01:41:22;100518.96;;;0.23;52.50
75172;BME280;63750;52.418;20.742;2022-11-20T01:43:51;100516.42;;;0.25;52.46
75172;BME280;63750;52.418;20.742;2022-11-20T01:46:20;100517.67;;;0.25;52.55
75172;BME280;63750;52.418;20.742;2022-11-20T01:48:53;100513.73;;;0.27;52.82
75172;BME280;63750;52.418;20.742;2022-11-20T01:51:27;100510.44;;;0.30;52.63
75172;BME280;63750;52.418;20.742;2022-11-20T01:54:02;100508.86;;;0.30;52.99
75172;BME280;63750;52.418;20.742;2022-11-20T01:56:35;100510.20;;;0.31;52.89
75172;BME280;63750;52.418;20.742;2022-11-20T01:59:07;100506.56;;;0.31;52.89
75172;BME280;63750;52.418;20.742;2022-11-20T02:01:36;100505.61;;;0.37;53.04
75172;BME280;63750;52.418;20.742;2022-11-20T02:04:05;100506.40;;;0.43;52.85
75172;BME280;63750;52.418;20.742;2022-11-20T02:06:38;100508.31;;;0.39;53.05
75172;BME280;63750;52.418;20.742;2022-11-20T02:09:08;100509.36;;;0.43;53.06
75172;BME280;63750;52.418;20.742;2022-11-20T02:11:37;100506.82;;;0.45;53.16
75172;BME280;63750;52.418;20.742;2022-11-20T02:14:05;100501.25;;;0.45;52.91
75172;BME280;63750;52.418;20.742;2022-11-20T02:16:37;100502.14;;;0.41;52.83
75172;BME280;63750;52.418;20.742;2022-11-20T02:19:09;100498.98;;;0.37;52.89
75172;BME280;63750;52.418;20.742;2022-11-20T02:21:45;100504.58;;;0.41;52.83
75172;BME280;63750;52.418;20.742;2022-11-20T02:24:16;100502.23;;;0.39;52.90
75172;BME280;63750;52.418;20.742;2022-11-20T02:26:49;100499.01;;;0.41;52.83
75172;BME280;63750;52.418;20.742;2022-11-20T02:29:24;100499.48;;;0.42;52.73
75172;BME280;63750;52.418;20.742;2022-11-20T02:31:54;100502.98;;;0.37;52.87
75172;BME280;63750;52.418;20.742;2022-11-20T02:34:23;100501.19;;;0.31;52.84
75172;BME280;63750;52.418;20.742;2022-11-20T02:36:52;100501.04;;;0.27;52.95
75172;BME280;63750;52.418;20.742;2022-11-20T02:39:22;100497.40;;;0.22;52.89
75172;BME280;63750;52.418;20.742;2022-11-20T02:41:53;100497.16;;;0.24;52.89
75172;BME280;63750;52.418;20.742;2022-11-20T02:44:22;100496.82;;;0.27;52.80
75172;BME280;63750;52.418;20.742;2022-11-20T02:46:50;100495.39;;;0.28;52.81
75172;BME280;63750;52.418;20.742;2022-11-20T02:49:19;100493.67;;;0.28;53.02
75172;BME280;63750;52.418;20.742;2022-11-20T02:51:47;100496.80;;;0.27;52.86
75172;BME280;63750;52.418;20.742;2022-11-20T02:54:16;100498.42;;;0.27;53.20
75172;BME280;63750;52.418;20.742;2022-11-20T02:56:44;100498.80;;;0.26;53.00
75172;BME280;63750;52.418;20.742;2022-11-20T02:59:12;100501.20;;;0.23;52.98
75172;BME280;63750;52.418;20.742;2022-11-20T03:01:41;100500.05;;;0.17;52.92
75172;BME280;63750;52.418;20.742;2022-11-20T03:04:09;100497.69;;;0.20;52.84
75172;BME280;63750;52.418;20.742;2022-11-20T03:06:38;100496.88;;;0.18;52.90
75172;BME280;63750;52.418;20.742;2022-11-20T03:09:06;100494.42;;;0.19;53.00
75172;BME280;63750;52.418;20.742;2022-11-20T03:11:35;100494.90;;;0.23;53.08
75172;BME280;63750;52.418;20.742;2022-11-20T03:14:05;100496.13;;;0.27;53.03
75172;BME280;63750;52.418;20.742;2022-11-20T03:16:34;100490.67;;;0.28;52.93
75172;BME280;63750;52.418;20.742;2022-11-20T03:19:02;100489.09;;;0.28;52.84
75172;BME280;63750;52.418;20.742;2022-11-20T03:21:30;100488.80;;;0.35;52.89
75172;BME280;63750;52.418;20.742;2022-11-20T03:24:00;100486.61;;;0.33;52.97
75172;BME280;63750;52.418;20.742;2022-11-20T03:26:29;100485.07;;;0.25;52.92
75172;BME280;63750;52.418;20.742;2022-11-20T03:29:00;100483.94;;;0.19;53.10
75172;BME280;63750;52.418;20.742;2022-11-20T03:31:31;100479.44;;;0.18;53.10
75172;BME280;63750;52.418;20.742;2022-11-20T03:34:01;100478.17;;;0.20;53.01
75172;BME280;63750;52.418;20.742;2022-11-20T03:36:30;100481.33;;;0.19;53.16
75172;BME280;63750;52.418;20.742;2022-11-20T03:38:59;100478.88;;;0.12;53.33
75172;BME280;63750;52.418;20.742;2022-11-20T03:41:29;100471.98;;;0.10;53.19
75172;BME280;63750;52.418;20.742;2022-11-20T03:43:59;100466.38;;;0.14;53.30
75172;BME280;63750;52.418;20.742;2022-11-20T03:46:29;100464.53;;;0.13;53.24
75172;BME280;63750;52.418;20.742;2022-11-20T03:48:58;100464.20;;;0.09;53.23
75172;BME280;63750;52.418;20.742;2022-11-20T03:51:28;100462.30;;;0.09;53.43
75172;BME280;63750;52.418;20.742;2022-11-20T03:53:58;100467.52;;;0.09;53.53
75172;BME280;63750;52.418;20.742;2022-11-20T03:56:28;100473.96;;;0.13;53.59
75172;BME280;63750;52.418;20.742;2022-11-20T03:58:57;100479.27;;;0.11;53.57
75172;BME280;63750;52.418;20.742;2022-11-20T04:01:27;100479.45;;;0.11;53.57
75172;BME280;63750;52.418;20.742;2022-11-20T04:03:57;100480.32;;;0.15;53.64
75172;BME280;63750;52.418;20.742;2022-11-20T04:06:27;100483.81;;;0.22;53.86
75172;BME280;63750;52.418;20.742;2022-11-20T04:08:57;100485.48;;;0.24;53.56
75172;BME280;63750;52.418;20.742;2022-11-20T04:11:28;100487.34;;;0.17;53.83
75172;BME280;63750;52.418;20.742;2022-11-20T04:13:58;100483.60;;;0.11;53.97
75172;BME280;63750;52.418;20.742;2022-11-20T04:16:28;100478.81;;;0.10;53.79
75172;BME280;63750;52.418;20.742;2022-11-20T04:18:59;100477.73;;;0.06;53.89
75172;BME280;63750;52.418;20.742;2022-11-20T04:21:28;100483.82;;;0.02;54.00
75172;BME280;63750;52.418;20.742;2022-11-20T04:23:57;100483.56;;;-0.03;54.19
75172;BME280;63750;52.418;20.742;2022-11-20T04:26:27;100489.89;;;-0.05;53.98
75172;BME280;63750;52.418;20.742;2022-11-20T04:28:57;100493.58;;;-0.09;54.13
75172;BME280;63750;52.418;20.742;2022-11-20T04:31:27;100491.71;;;-0.15;54.16
75172;BME280;63750;52.418;20.742;2022-11-20T04:33:58;100488.63;;;-0.23;54.34
75172;BME280;63750;52.418;20.742;2022-11-20T04:36:28;100489.05;;;-0.26;54.49
75172;BME280;63750;52.418;20.742;2022-11-20T04:38:58;100483.81;;;-0.21;54.40
75172;BME280;63750;52.418;20.742;2022-11-20T04:41:29;100483.14;;;-0.17;54.52
75172;BME280;63750;52.418;20.742;2022-11-20T04:44:00;100480.08;;;-0.19;54.50
75172;BME280;63750;52.418;20.742;2022-11-20T04:46:30;100475.79;;;-0.25;54.51
75172;BME280;63750;52.418;20.742;2022-11-20T04:48:58;100481.81;;;-0.27;54.63
75172;BME280;63750;52.418;20.742;2022-11-20T04:51:27;100477.46;;;-0.31;54.65
75172;BME280;63750;52.418;20.742;2022-11-20T04:53:55;100476.50;;;-0.37;55.04
75172;BME280;63750;52.418;20.742;2022-11-20T04:56:23;100474.52;;;-0.40;54.88
75172;BME280;63750;52.418;20.742;2022-11-20T04:58:52;100472.77;;;-0.44;54.93
75172;BME280;63750;52.418;20.742;2022-11-20T05:01:22;100470.80;;;-0.42;55.07
75172;BME280;63750;52.418;20.742;2022-11-20T05:03:51;100470.81;;;-0.43;55.20
75172;BME280;63750;52.418;20.742;2022-11-20T05:06:22;100471.35;;;-0.51;55.52
75172;BME280;63750;52.418;20.742;2022-11-20T05:08:50;100469.80;;;-0.52;55.32
75172;BME280;63750;52.418;20.742;2022-11-20T05:11:20;100469.15;;;-0.48;55.47
75172;BME280;63750;52.418;20.742;2022-11-20T05:13:49;100457.31;;;-0.48;55.54
75172;BME280;63750;52.418;20.742;2022-11-20T05:16:19;100454.66;;;-0.44;55.47
75172;BME280;63750;52.418;20.742;2022-11-20T05:18:48;100453.35;;;-0.45;55.46
75172;BME280;63750;52.418;20.742;2022-11-20T05:21:17;100452.29;;;-0.49;55.47
75172;BME280;63750;52.418;20.742;2022-11-20T05:23:47;100450.89;;;-0.48;55.57
75172;BME280;63750;52.418;20.742;2022-11-20T05:26:17;100451.23;;;-0.52;55.70
75172;BME280;63750;52.418;20.742;2022-11-20T05:28:46;100450.95;;;-0.54;55.70
75172;BME280;63750;52.418;20.742;2022-11-20T05:31:16;100456.91;;;-0.56;55.81
75172;BME280;63750;52.418;20.742;2022-11-20T05:33:45;100461.27;;;-0.59;55.83
75172;BME280;63750;52.418;20.742;2022-11-20T05:36:15;100460.39;;;-0.67;55.99
75172;BME280;63750;52.418;20.742;2022-11-20T05:38:44;100461.98;;;-0.73;55.70
75172;BME280;63750;52.418;20.742;2022-11-20T05:41:14;100459.92;;;-0.73;56.09
75172;BME280;63750;52.418;20.742;2022-11-20T05:43:44;100454.55;;;-0.73;56.09
75172;BME280;63750;52.418;20.742;2022-11-20T05:46:14;100448.15;;;-0.74;56.12
75172;BME280;63750;52.418;20.742;2022-11-20T05:48:44;100442.85;;;-0.76;56.12
75172;BME280;63750;52.418;20.742;2022-11-20T05:51:15;100443.39;;;-0.86;56.45
75172;BME280;63750;52.418;20.742;2022-11-20T05:53:43;100443.73;;;-0.89;56.38
75172;BME280;63750;52.418;20.742;2022-11-20T05:56:14;100437.53;;;-0.90;56.44
75172;BME280;63750;52.418;20.742;2022-11-20T05:58:42;100438.89;;;-0.94;56.42
75172;BME280;63750;52.418;20.742;2022-11-20T06:01:13;100439.58;;;-0.98;56.67
75172;BME280;63750;52.418;20.742;2022-11-20T06:03:42;100436.73;;;-1.01;56.66
75172;BME280;63750;52.418;20.742;2022-11-20T06:06:12;100432.62;;;-1.02;56.76
75172;BME280;63750;52.418;20.742;2022-11-20T06:08:40;100431.86;;;-1.04;56.81
75172;BME280;63750;52.418;20.742;2022-11-20T06:11:11;100427.97;;;-1.07;56.91
75172;BME280;63750;52.418;20.742;2022-11-20T06:13:40;100434.89;;;-1.11;56.99
75172;BME280;63750;52.418;20.742;2022-11-20T06:16:09;100435.66;;;-1.18;57.12
75172;BME280;63750;52.418;20.742;2022-11-20T06:18:38;100437.95;;;-1.22;57.06
75172;BME280;63750;52.418;20.742;2022-11-20T06:21:08;100440.05;;;-1.27;57.30
75172;BME280;63750;52.418;20.742;2022-11-20T06:23:37;100436.36;;;-1.26;57.36
75172;BME280;63750;52.418;20.742;2022-11-20T06:26:07;100442.69;;;-1.23;57.61
75172;BME280;63750;52.418;20.742;2022-11-20T06:28:36;100441.44;;;-1.22;57.50
75172;BME280;63750;52.418;20.742;2022-11-20T06:31:09;100445.44;;;-1.14;57.48
75172;BME280;63750;52.418;20.742;2022-11-20T06:33:38;100443.12;;;-1.08;57.37
75172;BME280;63750;52.418;20.742;2022-11-20T06:36:08;100441.62;;;-1.05;57.63
75172;BME280;63750;52.418;20.742;2022-11-20T06:38:40;100434.83;;;-1.01;57.68
75172;BME280;63750;52.418;20.742;2022-11-20T06:41:13;100437.16;;;-0.99;57.56
75172;BME280;63750;52.418;20.742;2022-11-20T06:43:43;100437.84;;;-0.98;57.62
75172;BME280;63750;52.418;20.742;2022-11-20T06:46:12;100433.02;;;-0.95;57.58
75172;BME280;63750;52.418;20.742;2022-11-20T06:48:41;100435.95;;;-0.90;57.37
75172;BME280;63750;52.418;20.742;2022-11-20T06:51:10;100432.27;;;-0.85;57.53
75172;BME280;63750;52.418;20.742;2022-11-20T06:53:39;100428.93;;;-0.76;57.57
75172;BME280;63750;52.418;20.742;2022-11-20T06:56:09;100433.62;;;-0.64;57.63
75172;BME280;63750;52.418;20.742;2022-11-20T06:58:37;100433.45;;;-0.56;57.54
75172;BME280;63750;52.418;20.742;2022-11-20T07:01:07;100436.91;;;-0.52;57.51
75172;BME280;63750;52.418;20.742;2022-11-20T07:03:37;100436.05;;;-0.44;57.29
75172;BME280;63750;52.418;20.742;2022-11-20T07:06:07;100435.31;;;-0.30;57.47
75172;BME280;63750;52.418;20.742;2022-11-20T07:08:36;100438.27;;;-0.22;57.11
75172;BME280;63750;52.418;20.742;2022-11-20T07:11:06;100434.54;;;-0.13;57.13
75172;BME280;63750;52.418;20.742;2022-11-20T07:13:35;100429.45;;;-0.08;56.96
75172;BME280;63750;52.418;20.742;2022-11-20T07:16:05;100427.15;;;-0.08;56.83
75172;BME280;63750;52.418;20.742;2022-11-20T07:18:36;100425.76;;;-0.08;56.86
75172;BME280;63750;52.418;20.742;2022-11-20T07:21:06;100425.02;;;-0.07;56.78
75172;BME280;63750;52.418;20.742;2022-11-20T07:23:35;100426.80;;;-0.08;56.77
75172;BME280;63750;52.418;20.742;2022-11-20T07:26:06;100430.38;;;-0.06;56.81
75172;BME280;63750;52.418;20.742;2022-11-20T07:28:35;100430.13;;;-0.00;56.75
75172;BME280;63750;52.418;20.742;2022-11-20T07:31:05;100427.61;;;-0.02;56.60
75172;BME280;63750;52.418;20.742;2022-11-20T07:33:34;100420.41;;;0.02;56.53
75172;BME280;63750;52.418;20.742;2022-11-20T07:36:04;100415.00;;;0.11;56.51
75172;BME280;63750;52.418;20.742;2022-11-20T07:38:33;100417.95;;;0.18;56.60
75172;BME280;63750;52.418;20.742;2022-11-20T07:41:02;100411.58;;;0.25;56.48
75172;BME280;63750;52.418;20.742;2022-11-20T07:43:32;100407.36;;;0.32;56.27
75172;BME280;63750;52.418;20.742;2022-11-20T07:46:00;100406.36;;;0.35;56.25
75172;BME280;63750;52.418;20.742;2022-11-20T07:48:29;100400.20;;;0.41;56.10
75172;BME280;63750;52.418;20.742;2022-11-20T07:51:01;100401.06;;;0.48;55.98
75172;BME280;63750;52.418;20.742;2022-11-20T07:53:29;100405.47;;;0.57;56.12
75172;BME280;63750;52.418;20.742;2022-11-20T07:56:00;100405.45;;;0.61;56.07
75172;BME280;63750;52.418;20.742;2022-11-20T07:58:30;100398.43;;;0.62;55.88
75172;BME280;63750;52.418;20.742;2022-11-20T08:01:01;100398.27;;;0.69;55.92
75172;BME280;63750;52.418;20.742;2022-11-20T08:03:30;100407.52;;;0.73;55.81
75172;BME280;63750;52.418;20.742;2022-11-20T08:06:01;100403.01;;;0.72;55.67
75172;BME280;63750;52.418;20.742;2022-11-20T08:08:30;100402.14;;;0.83;55.65
75172;BME280;63750;52.418;20.742;2022-11-20T08:10:59;100400.58;;;0.94;55.67
75172;BME280;63750;52.418;20.742;2022-11-20T08:13:27;100401.40;;;1.01;55.40
75172;BME280;63750;52.418;20.742;2022-11-20T08:15:56;100398.27;;;1.19;55.34
75172;BME280;63750;52.418;20.742;2022-11-20T08:18:24;100399.65;;;1.26;55.20
75172;BME280;63750;52.418;20.742;2022-11-20T08:20:52;100393.66;;;1.30;55.09
75172;BME280;63750;52.418;20.742;2022-11-20T08:23:22;100393.64;;;1.31;54.90
75172;BME280;63750;52.418;20.742;2022-11-20T08:25:51;100386.49;;;1.27;55.02
75172;BME280;63750;52.418;20.742;2022-11-20T08:28:20;100384.29;;;1.36;54.89
75172;BME280;63750;52.418;20.742;2022-11-20T08:30:48;100380.45;;;1.47;54.57
75172;BME280;63750;52.418;20.742;2022-11-20T08:33:17;100374.31;;;1.53;54.72
75172;BME280;63750;52.418;20.742;2022-11-20T08:35:46;100368.38;;;1.57;54.63
75172;BME280;63750;52.418;20.742;2022-11-20T08:38:14;100369.23;;;1.61;54.47
75172;BME280;63750;52.418;20.742;2022-11-20T08:40:43;100362.93;;;1.61;54.16
75172;BME280;63750;52.418;20.742;2022-11-20T08:43:11;100361.19;;;1.64;54.11
75172;BME280;63750;52.418;20.742;2022-11-20T08:45:40;100359.70;;;1.69;54.02
75172;BME280;63750;52.418;20.742;2022-11-20T08:48:08;100359.27;;;1.74;53.98
75172;BME280;63750;52.418;20.742;2022-11-20T08:50:36;100360.86;;;1.73;53.91
75172;BME280;63750;52.418;20.742;2022-11-20T08:53:05;100358.66;;;1.79;54.11
75172;BME280;63750;52.418;20.742;2022-11-20T08:55:34;100362.37;;;1.78;53.91
75172;BME280;63750;52.418;20.742;2022-11-20T08:58:06;100360.56;;;1.76;53.81
75172;BME280;63750;52.418;20.742;2022-11-20T09:00:35;100364.80;;;1.78;53.95
75172;BME280;63750;52.418;20.742;2022-11-20T09:03:03;100369.73;;;1.78;53.86
75172;BME280;63750;52.418;20.742;2022-11-20T09:05:31;100369.08;;;1.77;53.63
75172;BME280;63750;52.418;20.742;2022-11-20T09:08:00;100365.93;;;1.76;53.53
75172;BME280;63750;52.418;20.742;2022-11-20T09:10:29;100363.92;;;1.85;53.43
75172;BME280;63750;52.418;20.742;2022-11-20T09:12:57;100359.77;;;1.88;53.21
75172;BME280;63750;52.418;20.742;2022-11-20T09:15:26;100361.20;;;1.87;53.05
75172;BME280;63750;52.418;20.742;2022-11-20T09:17:55;100358.70;;;1.97;53.20
75172;BME280;63750;52.418;20.742;2022-11-20T09:20:24;100358.92;;;2.09;52.98
75172;BME280;63750;52.418;20.742;2022-11-20T09:22:53;100354.14;;;2.17;53.02
75172;BME280;63750;52.418;20.742;2022-11-20T09:25:21;100351.73;;;2.22;52.97
75172;BME280;63750;52.418;20.742;2022-11-20T09:27:56;100348.23;;;2.25;52.99
75172;BME280;63750;52.418;20.742;2022-11-20T09:30:24;100342.42;;;2.29;52.95
75172;BME280;63750;52.418;20.742;2022-11-20T09:32:53;100336.36;;;2.34;52.76
75172;BME280;63750;52.418;20.742;2022-11-20T09:35:22;100332.90;;;2.43;52.71
75172;BME280;63750;52.418;20.742;2022-11-20T09:37:54;100339.16;;;2.56;52.63
75172;BME280;63750;52.418;20.742;2022-11-20T09:40:26;100333.95;;;2.65;52.41
75172;BME280;63750;52.418;20.742;2022-11-20T09:42:59;100330.64;;;2.76;52.49
75172;BME280;63750;52.418;20.742;2022-11-20T09:45:42;100330.45;;;2.86;52.11
75172;BME280;63750;52.418;20.742;2022-11-20T09:48:25;100328.00;;;2.88;51.73
75172;BME280;63750;52.418;20.742;2022-11-20T09:51:03;100331.48;;;2.95;51.84
75172;BME280;63750;52.418;20.742;2022-11-20T09:53:40;100325.06;;;3.00;51.73
75172;BME280;63750;52.418;20.742;2022-11-20T09:56:12;100320.06;;;3.13;51.64
75172;BME280;63750;52.418;20.742;2022-11-20T09:58:44;100316.96;;;3.24;51.60
75172;BME280;63750;52.418;20.742;2022-11-20T10:01:17;100320.85;;;3.27;51.24
75172;BME280;63750;52.418;20.742;2022-11-20T10:03:53;100319.52;;;3.31;51.05
75172;BME280;63750;52.418;20.742;2022-11-20T10:06:27;100322.77;;;3.17;50.92
75172;BME280;63750;52.418;20.742;2022-11-20T10:09:16;100324.96;;;3.19;51.02
75172;BME280;63750;52.418;20.742;2022-11-20T10:12:00;100325.86;;;3.30;51.00
75172;BME280;63750;52.418;20.742;2022-11-20T10:14:45;100324.54;;;3.46;50.98
75172;BME280;63750;52.418;20.742;2022-11-20T10:17:27;100324.38;;;3.55;50.61
75172;BME280;63750;52.418;20.742;2022-11-20T10:20:12;100324.84;;;3.61;50.40
75172;BME280;63750;52.418;20.742;2022-11-20T10:22:53;100315.45;;;3.58;50.07
75172;BME280;63750;52.418;20.742;2022-11-20T10:25:34;100312.80;;;3.72;50.12
75172;BME280;63750;52.418;20.742;2022-11-20T10:28:27;100313.01;;;3.91;50.08
75172;BME280;63750;52.418;20.742;2022-11-20T10:31:02;100310.09;;;4.15;50.08
75172;BME280;63750;52.418;20.742;2022-11-20T10:33:34;100301.66;;;4.47;49.76
75172;BME280;63750;52.418;20.742;2022-11-20T10:36:13;100304.62;;;4.77;49.66
75172;BME280;63750;52.418;20.742;2022-11-20T10:38:45;100302.72;;;5.02;49.24
75172;BME280;63750;52.418;20.742;2022-11-20T10:41:20;100298.73;;;5.24;48.74
75172;BME280;63750;52.418;20.742;2022-11-20T10:43:53;100299.20;;;5.31;47.91
75172;BME280;63750;52.418;20.742;2022-11-20T10:46:25;100302.59;;;5.40;47.95
75172;BME280;63750;52.418;20.742;2022-11-20T10:48:54;100303.17;;;5.44;47.45
75172;BME280;63750;52.418;20.742;2022-11-20T10:51:34;100298.14;;;5.53;47.38
75172;BME280;63750;52.418;20.742;2022-11-20T10:57:10;100296.95;;;6.00;47.69
75172;BME280;63750;52.418;20.742;2022-11-20T10:59:49;100291.86;;;6.22;48.02
75172;BME280;63750;52.418;20.742;2022-11-20T11:02:24;100286.52;;;6.49;47.30
75172;BME280;63750;52.418;20.742;2022-11-20T11:05:08;100282.92;;;6.71;46.81
75172;BME280;63750;52.418;20.742;2022-11-20T11:07:39;100275.33;;;6.86;46.41
75172;BME280;63750;52.418;20.742;2022-11-20T11:12:47;100279.25;;;7.35;46.30
75172;BME280;63750;52.418;20.742;2022-11-20T11:15:25;100283.08;;;7.61;45.95
75172;BME280;63750;52.418;20.742;2022-11-20T11:17:54;100286.48;;;7.82;45.44
75172;BME280;63750;52.418;20.742;2022-11-20T11:20:24;100286.13;;;7.91;45.15
75172;BME280;63750;52.418;20.742;2022-11-20T11:22:54;100287.17;;;8.11;44.80
75172;BME280;63750;52.418;20.742;2022-11-20T11:25:30;100274.06;;;8.29;44.66
75172;BME280;63750;52.418;20.742;2022-11-20T11:28:01;100262.61;;;8.40;44.46
75172;BME280;63750;52.418;20.742;2022-11-20T11:30:41;100256.85;;;8.58;44.41
75172;BME280;63750;52.418;20.742;2022-11-20T11:33:19;100254.52;;;8.84;44.13
75172;BME280;63750;52.418;20.742;2022-11-20T11:35:49;100256.98;;;9.09;44.06
75172;BME280;63750;52.418;20.742;2022-11-20T11:38:21;100262.02;;;9.26;43.42
75172;BME280;63750;52.418;20.742;2022-11-20T11:40:49;100257.48;;;9.40;42.68
75172;BME280;63750;52.418;20.742;2022-11-20T11:43:23;100256.14;;;9.53;42.64
75172;BME280;63750;52.418;20.742;2022-11-20T11:45:55;100253.44;;;9.70;42.45
75172;BME280;63750;52.418;20.742;2022-11-20T11:48:24;100256.21;;;9.66;41.30
75172;BME280;63750;52.418;20.742;2022-11-20T11:50:52;100252.17;;;9.40;40.40
75172;BME280;63750;52.418;20.742;2022-11-20T11:53:22;100249.86;;;9.38;41.02
75172;BME280;63750;52.418;20.742;2022-11-20T11:56:07;100251.22;;;9.31;40.00
75172;BME280;63750;52.418;20.742;2022-11-20T11:58:43;100241.01;;;9.14;40.17
75172;BME280;63750;52.418;20.742;2022-11-20T12:01:20;100239.55;;;9.16;40.34
75172;BME280;63750;52.418;20.742;2022-11-20T12:03:59;100241.85;;;9.02;39.93
75172;BME280;63750;52.418;20.742;2022-11-20T12:06:29;100241.89;;;8.89;39.99
75172;BME280;63750;52.418;20.742;2022-11-20T12:09:01;100235.13;;;8.98;39.80
75172;BME280;63750;52.418;20.742;2022-11-20T12:11:37;100234.00;;;8.97;39.61
75172;BME280;63750;52.418;20.742;2022-11-20T12:14:22;100228.24;;;8.77;39.37
75172;BME280;63750;52.418;20.742;2022-11-20T12:16:57;100224.96;;;8.74;39.44
75172;BME280;63750;52.418;20.742;2022-11-20T12:19:31;100220.86;;;8.64;39.56
75172;BME280;63750;52.418;20.742;2022-11-20T12:22:05;100215.08;;;8.59;39.53
75172;BME280;63750;52.418;20.742;2022-11-20T12:24:44;100215.45;;;8.69;39.75
75172;BME280;63750;52.418;20.742;2022-11-20T12:27:41;100213.82;;;8.74;39.19
75172;BME280;63750;52.418;20.742;2022-11-20T12:30:14;100209.95;;;8.89;39.62
75172;BME280;63750;52.418;20.742;2022-11-20T12:33:15;100203.36;;;8.95;39.56
75172;BME280;63750;52.418;20.742;2022-11-20T12:36:06;100205.44;;;9.00;39.67
75172;BME280;63750;52.418;20.742;2022-11-20T12:41:39;100200.04;;;8.51;39.68
75172;BME280;63750;52.418;20.742;2022-11-20T12:44:24;100202.58;;;8.09;39.42
75172;BME280;63750;52.418;20.742;2022-11-20T12:47:01;100200.88;;;7.70;39.86
75172;BME280;63750;52.418;20.742;2022-11-20T12:49:38;100199.71;;;7.49;39.81
75172;BME280;63750;52.418;20.742;2022-11-20T12:52:19;100197.00;;;7.17;40.18
75172;BME280;63750;52.418;20.742;2022-11-20T12:55:28;100201.60;;;6.80;40.42
75172;BME280;63750;52.418;20.742;2022-11-20T12:58:00;100188.63;;;6.47;41.15
75172;BME280;63750;52.418;20.742;2022-11-20T13:00:34;100181.48;;;6.30;41.14
75172;BME280;63750;52.418;20.742;2022-11-20T13:03:23;100175.02;;;6.13;41.61
75172;BME280;63750;52.418;20.742;2022-11-20T13:06:02;100177.16;;;6.06;41.90
75172;BME280;63750;52.418;20.742;2022-11-20T13:08:36;100172.85;;;6.07;42.20
75172;BME280;63750;52.418;20.742;2022-11-20T13:11:12;100169.57;;;5.89;42.49
75172;BME280;63750;52.418;20.742;2022-11-20T13:13:55;100165.08;;;5.73;42.28
75172;BME280;63750;52.418;20.742;2022-11-20T13:16:33;100165.41;;;5.64;42.59
75172;BME280;63750;52.418;20.742;2022-11-20T13:19:09;100163.23;;;5.55;42.83